PWSweather.com
Personal Weather Stations
Station Observations
SJQUICK
Almaden, San Jose, CA 95120

AlmadenSan Jose, CA 95120

Lat: 37.204363, Lon: -121.871504

Elevation: 486

Station Type: Davas Vantage Pro Plus

Latest ConditionsUpdated 5:05:18 PM PDT Thursday, May 23, 2019
Currently Today's Max Today's Min Today's Average
Temperature 68.9°F20.5°C 71.3°F21.8°C 50.1°F10.1°C 59.2°F15.1°C
Dew Point 51.1°F10.6°C 54.3°F12.4°C 46.8°F8.2°C 50.6°F10.3°C
Winds 7.0 mph NE11.3 kmh NE 14.0 mph -22.5 kmh - - 2.2 mph 3.5 kmh
Wind Gusts -- -- - -
Humidity 53% 92% 51% 75%
Pressure 29.82 in1009.8 mb 29.82 in1009.8 mb 29.76 in1007.8 mb -
Hour Temp Dew Point Humidity Winds Wind Gusts Pressure Precip Precip Rate Daily Precip Total
05:05 PM 68.9°F20.5°C 51.1°F10.6°C 53% 7.0 mph NE11.3 kmh NE -- 29.82 in1009.8 mb 0.00 in0.0 mm 0.00 in0.0 mm 0.00 in0.0 mm
05:00 PM 68.8°F20.4°C 51.4°F10.8°C 54% 1.0 mph SE1.6 kmh SE -- 29.82 in1009.8 mb 0.00 in0.0 mm 0.00 in0.0 mm 0.00 in0.0 mm
04:55 PM 68.6°F20.3°C 51.3°F10.7°C 54% 6.0 mph E9.7 kmh E -- 29.82 in1009.8 mb 0.00 in0.0 mm 0.00 in0.0 mm 0.00 in0.0 mm
04:50 PM 68.6°F20.3°C 51.3°F10.7°C 54% 3.0 mph S4.8 kmh S -- 29.82 in1009.8 mb 0.00 in0.0 mm 0.00 in0.0 mm 0.00 in0.0 mm
04:45 PM 69.1°F20.6°C 51.3°F10.7°C 53% 4.0 mph S6.4 kmh S -- 29.82 in1009.8 mb 0.00 in0.0 mm 0.00 in0.0 mm 0.00 in0.0 mm
04:40 PM 69.8°F21.0°C 51.4°F10.8°C 52% 10.0 mph SE16.1 kmh SE -- 29.82 in1009.8 mb 0.00 in0.0 mm 0.00 in0.0 mm 0.00 in0.0 mm
04:35 PM 70.3°F21.3°C 51.3°F10.7°C 51% 8.0 mph ESE12.9 kmh ESE -- 29.82 in1009.8 mb 0.00 in0.0 mm 0.00 in0.0 mm 0.00 in0.0 mm
04:30 PM 71.1°F21.7°C 52.0°F11.1°C 51% 7.0 mph SE11.3 kmh SE -- 29.82 in1009.8 mb 0.00 in0.0 mm 0.00 in0.0 mm 0.00 in0.0 mm
04:25 PM 71.1°F21.7°C 52.0°F11.1°C 51% 7.0 mph E11.3 kmh E -- 29.82 in1009.8 mb 0.00 in0.0 mm 0.00 in0.0 mm 0.00 in0.0 mm
04:20 PM 70.9°F21.6°C 52.3°F11.3°C 52% 2.0 mph NE3.2 kmh NE -- 29.82 in1009.8 mb 0.00 in0.0 mm 0.00 in0.0 mm 0.00 in0.0 mm
04:15 PM 70.6°F21.4°C 52.5°F11.4°C 53% 7.0 mph ESE11.3 kmh ESE -- 29.82 in1009.8 mb 0.00 in0.0 mm 0.00 in0.0 mm 0.00 in0.0 mm
04:10 PM 70.1°F21.2°C 52.2°F11.2°C 53% Calm Calm -- 29.81 in1009.5 mb 0.00 in0.0 mm 0.00 in0.0 mm 0.00 in0.0 mm
04:05 PM 70.3°F21.3°C 52.3°F11.3°C 53% 9.0 mph ESE14.5 kmh ESE -- 29.81 in1009.5 mb 0.00 in0.0 mm 0.00 in0.0 mm 0.00 in0.0 mm
04:00 PM 70.4°F21.3°C 51.8°F11.0°C 52% 3.0 mph SSE4.8 kmh SSE -- 29.81 in1009.5 mb 0.00 in0.0 mm 0.00 in0.0 mm 0.00 in0.0 mm
03:55 PM 70.6°F21.4°C 52.0°F11.1°C 52% 8.0 mph ESE12.9 kmh ESE -- 29.81 in1009.5 mb 0.00 in0.0 mm 0.00 in0.0 mm 0.00 in0.0 mm
03:50 PM 71.1°F21.7°C 52.5°F11.4°C 52% 13.0 mph SSE20.9 kmh SSE -- 29.81 in1009.5 mb 0.00 in0.0 mm 0.00 in0.0 mm 0.00 in0.0 mm
03:45 PM 70.9°F21.6°C 52.3°F11.3°C 52% 6.0 mph E9.7 kmh E -- 29.81 in1009.5 mb 0.00 in0.0 mm 0.00 in0.0 mm 0.00 in0.0 mm
03:40 PM 71.3°F21.8°C 52.7°F11.5°C 52% 3.0 mph SSE4.8 kmh SSE -- 29.81 in1009.5 mb 0.00 in0.0 mm 0.00 in0.0 mm 0.00 in0.0 mm
03:35 PM 70.9°F21.6°C 52.3°F11.3°C 52% Calm Calm -- 29.81 in1009.5 mb 0.00 in0.0 mm 0.00 in0.0 mm 0.00 in0.0 mm
03:30 PM 70.9°F21.6°C 52.9°F11.6°C 53% 4.0 mph NE6.4 kmh NE -- 29.81 in1009.5 mb 0.00 in0.0 mm 0.00 in0.0 mm 0.00 in0.0 mm
03:25 PM 70.8°F21.6°C 54.3°F12.4°C 56% Calm Calm -- 29.81 in1009.5 mb 0.00 in0.0 mm 0.00 in0.0 mm 0.00 in0.0 mm
03:20 PM 70.6°F21.4°C 54.1°F12.3°C 56% 1.0 mph E1.6 kmh E -- 29.81 in1009.5 mb 0.00 in0.0 mm 0.00 in0.0 mm 0.00 in0.0 mm
03:15 PM 70.3°F21.3°C 54.0°F12.2°C 56% 5.0 mph NE8.0 kmh NE -- 29.81 in1009.5 mb 0.00 in0.0 mm 0.00 in0.0 mm 0.00 in0.0 mm
03:10 PM 69.9°F21.1°C 53.6°F12.0°C 56% 2.0 mph ENE3.2 kmh ENE -- 29.81 in1009.5 mb 0.00 in0.0 mm 0.00 in0.0 mm 0.00 in0.0 mm
03:05 PM 69.6°F20.9°C 53.2°F11.8°C 56% 3.0 mph NE4.8 kmh NE -- 29.81 in1009.5 mb 0.00 in0.0 mm 0.00 in0.0 mm 0.00 in0.0 mm
03:00 PM 69.6°F20.9°C 53.2°F11.8°C 56% 3.0 mph SSE4.8 kmh SSE -- 29.81 in1009.5 mb 0.00 in0.0 mm 0.00 in0.0 mm 0.00 in0.0 mm
02:55 PM 69.8°F21.0°C 53.4°F11.9°C 56% Calm Calm -- 29.81 in1009.5 mb 0.00 in0.0 mm 0.00 in0.0 mm 0.00 in0.0 mm
02:50 PM 69.8°F21.0°C 53.4°F11.9°C 56% Calm Calm -- 29.81 in1009.5 mb 0.00 in0.0 mm 0.00 in0.0 mm 0.00 in0.0 mm
02:45 PM 69.9°F21.1°C 53.6°F12.0°C 56% 1.0 mph ENE1.6 kmh ENE -- 29.81 in1009.5 mb 0.00 in0.0 mm 0.00 in0.0 mm 0.00 in0.0 mm
02:40 PM 70.3°F21.3°C 54.0°F12.2°C 56% 5.0 mph E8.0 kmh E -- 29.81 in1009.5 mb 0.00 in0.0 mm 0.00 in0.0 mm 0.00 in0.0 mm
02:35 PM 70.1°F21.2°C 54.1°F12.3°C 57% Calm Calm -- 29.81 in1009.5 mb 0.00 in0.0 mm 0.00 in0.0 mm 0.00 in0.0 mm
02:30 PM 69.8°F21.0°C 53.8°F12.1°C 57% Calm Calm -- 29.81 in1009.5 mb 0.00 in0.0 mm 0.00 in0.0 mm 0.00 in0.0 mm
02:25 PM 69.3°F20.7°C 54.3°F12.4°C 59% Calm Calm -- 29.82 in1009.8 mb 0.00 in0.0 mm 0.00 in0.0 mm 0.00 in0.0 mm
02:20 PM 68.8°F20.4°C 53.4°F11.9°C 58% 6.0 mph SE9.7 kmh SE -- 29.82 in1009.8 mb 0.00 in0.0 mm 0.00 in0.0 mm 0.00 in0.0 mm
02:15 PM 68.9°F20.5°C 53.4°F11.9°C 58% 4.0 mph ENE6.4 kmh ENE -- 29.82 in1009.8 mb 0.00 in0.0 mm 0.00 in0.0 mm 0.00 in0.0 mm
02:10 PM 68.8°F20.4°C 53.8°F12.1°C 59% 3.0 mph E4.8 kmh E -- 29.81 in1009.5 mb 0.00 in0.0 mm 0.00 in0.0 mm 0.00 in0.0 mm
02:05 PM 68.3°F20.2°C 54.0°F12.2°C 60% 3.0 mph ENE4.8 kmh ENE -- 29.81 in1009.5 mb 0.00 in0.0 mm 0.00 in0.0 mm 0.00 in0.0 mm
02:00 PM 67.9°F19.9°C 53.8°F12.1°C 61% 5.0 mph SE8.0 kmh SE -- 29.81 in1009.5 mb 0.00 in0.0 mm 0.00 in0.0 mm 0.00 in0.0 mm
01:55 PM 67.6°F19.8°C 53.8°F12.1°C 61% 4.0 mph ENE6.4 kmh ENE -- 29.81 in1009.5 mb 0.00 in0.0 mm 0.00 in0.0 mm 0.00 in0.0 mm
01:50 PM 67.4°F19.7°C 53.6°F12.0°C 61% Calm Calm -- 29.81 in1009.5 mb 0.00 in0.0 mm 0.00 in0.0 mm 0.00 in0.0 mm
01:45 PM 67.4°F19.7°C 53.1°F11.7°C 60% 6.0 mph E9.7 kmh E -- 29.81 in1009.5 mb 0.00 in0.0 mm 0.00 in0.0 mm 0.00 in0.0 mm
01:40 PM 67.6°F19.8°C 53.2°F11.8°C 60% 8.0 mph E12.9 kmh E -- 29.81 in1009.5 mb 0.00 in0.0 mm 0.00 in0.0 mm 0.00 in0.0 mm
01:35 PM 67.6°F19.8°C 53.8°F12.1°C 61% 4.0 mph E6.4 kmh E -- 29.81 in1009.5 mb 0.00 in0.0 mm 0.00 in0.0 mm 0.00 in0.0 mm
01:30 PM 67.8°F19.9°C 53.8°F12.1°C 61% 11.0 mph SSE17.7 kmh SSE -- 29.81 in1009.5 mb 0.00 in0.0 mm 0.00 in0.0 mm 0.00 in0.0 mm
01:25 PM 67.8°F19.9°C 53.4°F11.9°C 60% 6.0 mph ESE9.7 kmh ESE -- 29.81 in1009.5 mb 0.00 in0.0 mm 0.00 in0.0 mm 0.00 in0.0 mm
01:20 PM 67.9°F19.9°C 52.9°F11.6°C 59% 2.0 mph S3.2 kmh S -- 29.81 in1009.5 mb 0.00 in0.0 mm 0.00 in0.0 mm 0.00 in0.0 mm
01:15 PM 68.3°F20.2°C 53.4°F11.9°C 59% 7.0 mph E11.3 kmh E -- 29.81 in1009.5 mb 0.00 in0.0 mm 0.00 in0.0 mm 0.00 in0.0 mm
01:10 PM 68.4°F20.2°C 53.4°F11.9°C 59% 5.0 mph ESE8.0 kmh ESE -- 29.80 in1009.1 mb 0.00 in0.0 mm 0.00 in0.0 mm 0.00 in0.0 mm
01:05 PM 68.3°F20.2°C 53.4°F11.9°C 59% Calm Calm -- 29.80 in1009.1 mb 0.00 in0.0 mm 0.00 in0.0 mm 0.00 in0.0 mm
01:00 PM 68.1°F20.1°C 53.2°F11.8°C 59% 6.0 mph ESE9.7 kmh ESE -- 29.80 in1009.1 mb 0.00 in0.0 mm 0.00 in0.0 mm 0.00 in0.0 mm
12:55 PM 68.1°F20.1°C 53.8°F12.1°C 60% 5.0 mph SSE8.0 kmh SSE -- 29.81 in1009.5 mb 0.00 in0.0 mm 0.00 in0.0 mm 0.00 in0.0 mm
12:50 PM 68.1°F20.1°C 53.8°F12.1°C 60% 3.0 mph E4.8 kmh E -- 29.81 in1009.5 mb 0.00 in0.0 mm 0.00 in0.0 mm 0.00 in0.0 mm
12:45 PM 67.6°F19.8°C 53.2°F11.8°C 60% 11.0 mph ENE17.7 kmh ENE -- 29.81 in1009.5 mb 0.00 in0.0 mm 0.00 in0.0 mm 0.00 in0.0 mm
12:40 PM 67.3°F19.6°C 53.4°F11.9°C 61% 3.0 mph SE4.8 kmh SE -- 29.81 in1009.5 mb 0.00 in0.0 mm 0.00 in0.0 mm 0.00 in0.0 mm
12:35 PM 67.1°F19.5°C 53.2°F11.8°C 61% 10.0 mph E16.1 kmh E -- 29.81 in1009.5 mb 0.00 in0.0 mm 0.00 in0.0 mm 0.00 in0.0 mm
12:30 PM 66.8°F19.3°C 53.2°F11.8°C 62% 5.0 mph SE8.0 kmh SE -- 29.81 in1009.5 mb 0.00 in0.0 mm 0.00 in0.0 mm 0.00 in0.0 mm
12:25 PM 66.6°F19.2°C 53.1°F11.7°C 62% 6.0 mph NE9.7 kmh NE -- 29.81 in1009.5 mb 0.00 in0.0 mm 0.00 in0.0 mm 0.00 in0.0 mm
12:20 PM 66.4°F19.1°C 52.9°F11.6°C 62% 6.0 mph SSE9.7 kmh SSE -- 29.81 in1009.5 mb 0.00 in0.0 mm 0.00 in0.0 mm 0.00 in0.0 mm
12:15 PM 66.6°F19.2°C 53.1°F11.7°C 62% 7.0 mph S11.3 kmh S -- 29.81 in1009.5 mb 0.00 in0.0 mm 0.00 in0.0 mm 0.00 in0.0 mm
12:10 PM 66.8°F19.3°C 53.8°F12.1°C 63% 14.0 mph E22.5 kmh E -- 29.80 in1009.1 mb 0.00 in0.0 mm 0.00 in0.0 mm 0.00 in0.0 mm
12:05 PM 66.3°F19.1°C 53.4°F11.9°C 63% 3.0 mph E4.8 kmh E -- 29.80 in1009.1 mb 0.00 in0.0 mm 0.00 in0.0 mm 0.00 in0.0 mm
12:00 PM 66.0°F18.9°C 53.4°F11.9°C 64% 5.0 mph ESE8.0 kmh ESE -- 29.80 in1009.1 mb 0.00 in0.0 mm 0.00 in0.0 mm 0.00 in0.0 mm
11:55 AM 65.6°F18.7°C 52.7°F11.5°C 63% 2.0 mph ESE3.2 kmh ESE -- 29.80 in1009.1 mb 0.00 in0.0 mm 0.00 in0.0 mm 0.00 in0.0 mm
11:50 AM 65.8°F18.8°C 52.9°F11.6°C 63% 7.0 mph SE11.3 kmh SE -- 29.80 in1009.1 mb 0.00 in0.0 mm 0.00 in0.0 mm 0.00 in0.0 mm
11:45 AM 65.8°F18.8°C 53.2°F11.8°C 64% 4.0 mph SE6.4 kmh SE -- 29.80 in1009.1 mb 0.00 in0.0 mm 0.00 in0.0 mm 0.00 in0.0 mm
11:40 AM 65.8°F18.8°C 52.9°F11.6°C 63% 10.0 mph E16.1 kmh E -- 29.80 in1009.1 mb 0.00 in0.0 mm 0.00 in0.0 mm 0.00 in0.0 mm
11:35 AM 65.6°F18.7°C 52.7°F11.5°C 63% 5.0 mph SE8.0 kmh SE -- 29.80 in1009.1 mb 0.00 in0.0 mm 0.00 in0.0 mm 0.00 in0.0 mm
11:30 AM 65.6°F18.7°C 52.7°F11.5°C 63% 12.0 mph ESE19.3 kmh ESE -- 29.80 in1009.1 mb 0.00 in0.0 mm 0.00 in0.0 mm 0.00 in0.0 mm
11:25 AM 65.8°F18.8°C 52.5°F11.4°C 62% 2.0 mph S3.2 kmh S -- 29.80 in1009.1 mb 0.00 in0.0 mm 0.00 in0.0 mm 0.00 in0.0 mm
11:20 AM 65.6°F18.7°C 53.1°F11.7°C 64% 5.0 mph E8.0 kmh E -- 29.80 in1009.1 mb 0.00 in0.0 mm 0.00 in0.0 mm 0.00 in0.0 mm
11:15 AM 65.2°F18.4°C 53.1°F11.7°C 65% 5.0 mph ESE8.0 kmh ESE -- 29.80 in1009.1 mb 0.00 in0.0 mm 0.00 in0.0 mm 0.00 in0.0 mm
11:10 AM 65.0°F18.3°C 52.5°F11.4°C 64% 3.0 mph E4.8 kmh E -- 29.80 in1009.1 mb 0.00 in0.0 mm 0.00 in0.0 mm 0.00 in0.0 mm
11:05 AM 65.0°F18.3°C 52.5°F11.4°C 64% 6.0 mph E9.7 kmh E -- 29.80 in1009.1 mb 0.00 in0.0 mm 0.00 in0.0 mm 0.00 in0.0 mm
11:00 AM 64.7°F18.2°C 52.7°F11.5°C 65% 2.0 mph E3.2 kmh E -- 29.80 in1009.1 mb 0.00 in0.0 mm 0.00 in0.0 mm 0.00 in0.0 mm
10:55 AM 64.5°F18.1°C 52.2°F11.2°C 64% 2.0 mph ENE3.2 kmh ENE -- 29.80 in1009.1 mb 0.00 in0.0 mm 0.00 in0.0 mm 0.00 in0.0 mm
10:50 AM 64.7°F18.2°C 52.7°F11.5°C 65% 7.0 mph E11.3 kmh E -- 29.80 in1009.1 mb 0.00 in0.0 mm 0.00 in0.0 mm 0.00 in0.0 mm
10:45 AM 64.8°F18.2°C 52.7°F11.5°C 65% 3.0 mph SE4.8 kmh SE -- 29.80 in1009.1 mb 0.00 in0.0 mm 0.00 in0.0 mm 0.00 in0.0 mm
10:40 AM 64.2°F17.9°C 52.7°F11.5°C 66% 3.0 mph SSE4.8 kmh SSE -- 29.80 in1009.1 mb 0.00 in0.0 mm 0.00 in0.0 mm 0.00 in0.0 mm
10:35 AM 63.9°F17.7°C 52.7°F11.5°C 67% 5.0 mph NE8.0 kmh NE -- 29.80 in1009.1 mb 0.00 in0.0 mm 0.00 in0.0 mm 0.00 in0.0 mm
10:30 AM 63.7°F17.6°C 52.5°F11.4°C 67% 5.0 mph E8.0 kmh E -- 29.80 in1009.1 mb 0.00 in0.0 mm 0.00 in0.0 mm 0.00 in0.0 mm
10:25 AM 63.7°F17.6°C 52.9°F11.6°C 68% 5.0 mph E8.0 kmh E -- 29.80 in1009.1 mb 0.00 in0.0 mm 0.00 in0.0 mm 0.00 in0.0 mm
10:20 AM 63.4°F17.4°C 53.4°F11.9°C 70% 5.0 mph SE8.0 kmh SE -- 29.80 in1009.1 mb 0.00 in0.0 mm 0.00 in0.0 mm 0.00 in0.0 mm
10:15 AM 62.9°F17.2°C 53.1°F11.7°C 70% 7.0 mph SE11.3 kmh SE -- 29.80 in1009.1 mb 0.00 in0.0 mm 0.00 in0.0 mm 0.00 in0.0 mm
10:10 AM 62.4°F16.9°C 52.9°F11.6°C 71% 6.0 mph ESE9.7 kmh ESE -- 29.80 in1009.1 mb 0.00 in0.0 mm 0.00 in0.0 mm 0.00 in0.0 mm
10:05 AM 61.8°F16.6°C 53.1°F11.7°C 73% 9.0 mph E14.5 kmh E -- 29.80 in1009.1 mb 0.00 in0.0 mm 0.00 in0.0 mm 0.00 in0.0 mm
10:00 AM 61.0°F16.1°C 52.7°F11.5°C 74% 5.0 mph E8.0 kmh E -- 29.80 in1009.1 mb 0.00 in0.0 mm 0.00 in0.0 mm 0.00 in0.0 mm
09:55 AM 60.5°F15.8°C 52.5°F11.4°C 75% 6.0 mph E9.7 kmh E -- 29.80 in1009.1 mb 0.00 in0.0 mm 0.00 in0.0 mm 0.00 in0.0 mm
09:50 AM 59.9°F15.5°C 53.8°F12.1°C 80% 3.0 mph SE4.8 kmh SE -- 29.80 in1009.1 mb 0.00 in0.0 mm 0.00 in0.0 mm 0.00 in0.0 mm
09:45 AM 59.2°F15.1°C 53.1°F11.7°C 80% 1.0 mph E1.6 kmh E -- 29.80 in1009.1 mb 0.00 in0.0 mm 0.00 in0.0 mm 0.00 in0.0 mm
09:40 AM 58.4°F14.7°C 52.3°F11.3°C 80% Calm Calm -- 29.80 in1009.1 mb 0.00 in0.0 mm 0.00 in0.0 mm 0.00 in0.0 mm
09:35 AM 58.3°F14.6°C 53.1°F11.7°C 83% 4.0 mph ESE6.4 kmh ESE -- 29.80 in1009.1 mb 0.00 in0.0 mm 0.00 in0.0 mm 0.00 in0.0 mm
09:30 AM 57.8°F14.3°C 52.7°F11.5°C 83% 3.0 mph ESE4.8 kmh ESE -- 29.80 in1009.1 mb 0.00 in0.0 mm 0.00 in0.0 mm 0.00 in0.0 mm
09:25 AM 57.3°F14.1°C 52.5°F11.4°C 84% 4.0 mph SSE6.4 kmh SSE -- 29.80 in1009.1 mb 0.00 in0.0 mm 0.00 in0.0 mm 0.00 in0.0 mm
09:20 AM 57.0°F13.9°C 52.5°F11.4°C 85% 3.0 mph SE4.8 kmh SE -- 29.80 in1009.1 mb 0.00 in0.0 mm 0.00 in0.0 mm 0.00 in0.0 mm
09:15 AM 56.9°F13.8°C 52.7°F11.5°C 86% 2.0 mph SE3.2 kmh SE -- 29.80 in1009.1 mb 0.00 in0.0 mm 0.00 in0.0 mm 0.00 in0.0 mm
09:10 AM 56.6°F13.7°C 53.1°F11.7°C 88% 5.0 mph SE8.0 kmh SE -- 29.80 in1009.1 mb 0.00 in0.0 mm 0.00 in0.0 mm 0.00 in0.0 mm
09:05 AM 56.5°F13.6°C 52.9°F11.6°C 88% 4.0 mph ESE6.4 kmh ESE -- 29.80 in1009.1 mb 0.00 in0.0 mm 0.00 in0.0 mm 0.00 in0.0 mm
09:00 AM 56.2°F13.4°C 52.7°F11.5°C 88% 2.0 mph SSE3.2 kmh SSE -- 29.80 in1009.1 mb 0.00 in0.0 mm 0.00 in0.0 mm 0.00 in0.0 mm
08:55 AM 55.9°F13.3°C 52.7°F11.5°C 89% 3.0 mph E4.8 kmh E -- 29.80 in1009.1 mb 0.00 in0.0 mm 0.00 in0.0 mm 0.00 in0.0 mm
08:50 AM 55.6°F13.1°C 52.7°F11.5°C 90% Calm Calm -- 29.80 in1009.1 mb 0.00 in0.0 mm 0.00 in0.0 mm 0.00 in0.0 mm
08:45 AM 55.3°F12.9°C 52.3°F11.3°C 90% Calm Calm -- 29.80 in1009.1 mb 0.00 in0.0 mm 0.00 in0.0 mm 0.00 in0.0 mm
08:40 AM 55.1°F12.8°C 52.2°F11.2°C 90% Calm Calm -- 29.80 in1009.1 mb 0.00 in0.0 mm 0.00 in0.0 mm 0.00 in0.0 mm
08:35 AM 55.0°F12.8°C 52.2°F11.2°C 90% Calm Calm -- 29.80 in1009.1 mb 0.00 in0.0 mm 0.00 in0.0 mm 0.00 in0.0 mm
08:30 AM 54.7°F12.6°C 52.2°F11.2°C 91% Calm Calm -- 29.80 in1009.1 mb 0.00 in0.0 mm 0.00 in0.0 mm 0.00 in0.0 mm
08:25 AM 54.5°F12.5°C 52.0°F11.1°C 91% 3.0 mph ESE4.8 kmh ESE -- 29.80 in1009.1 mb 0.00 in0.0 mm 0.00 in0.0 mm 0.00 in0.0 mm
08:20 AM 54.4°F12.4°C 51.8°F11.0°C 91% 3.0 mph SSE4.8 kmh SSE -- 29.80 in1009.1 mb 0.00 in0.0 mm 0.00 in0.0 mm 0.00 in0.0 mm
08:15 AM 54.2°F12.3°C 51.6°F10.9°C 91% 1.0 mph SSW1.6 kmh SSW -- 29.80 in1009.1 mb 0.00 in0.0 mm 0.00 in0.0 mm 0.00 in0.0 mm
08:10 AM 54.1°F12.3°C 51.8°F11.0°C 92% Calm Calm -- 29.79 in1008.8 mb 0.00 in0.0 mm 0.00 in0.0 mm 0.00 in0.0 mm
08:05 AM 53.8°F12.1°C 51.4°F10.8°C 92% Calm Calm -- 29.79 in1008.8 mb 0.00 in0.0 mm 0.00 in0.0 mm 0.00 in0.0 mm
08:00 AM 53.6°F12.0°C 51.3°F10.7°C 92% Calm Calm -- 29.79 in1008.8 mb 0.00 in0.0 mm 0.00 in0.0 mm 0.00 in0.0 mm
07:55 AM 53.5°F11.9°C 51.1°F10.6°C 92% Calm Calm -- 29.78 in1008.5 mb 0.00 in0.0 mm 0.00 in0.0 mm 0.00 in0.0 mm
07:50 AM 53.2°F11.8°C 50.9°F10.5°C 92% Calm Calm -- 29.78 in1008.5 mb 0.00 in0.0 mm 0.00 in0.0 mm 0.00 in0.0 mm
07:45 AM 53.1°F11.7°C 50.7°F10.4°C 92% Calm Calm -- 29.78 in1008.5 mb 0.00 in0.0 mm 0.00 in0.0 mm 0.00 in0.0 mm
07:40 AM 52.8°F11.6°C 50.5°F10.3°C 92% Calm Calm -- 29.78 in1008.5 mb 0.00 in0.0 mm 0.00 in0.0 mm 0.00 in0.0 mm
07:35 AM 52.8°F11.6°C 50.5°F10.3°C 92% Calm Calm -- 29.78 in1008.5 mb 0.00 in0.0 mm 0.00 in0.0 mm 0.00 in0.0 mm
07:30 AM 52.5°F11.4°C 50.2°F10.1°C 92% Calm Calm -- 29.78 in1008.5 mb 0.00 in0.0 mm 0.00 in0.0 mm 0.00 in0.0 mm
07:25 AM 52.2°F11.2°C 49.8°F9.9°C 92% Calm Calm -- 29.78 in1008.5 mb 0.00 in0.0 mm 0.00 in0.0 mm 0.00 in0.0 mm
07:20 AM 51.9°F11.1°C 49.6°F9.8°C 92% Calm Calm -- 29.78 in1008.5 mb 0.00 in0.0 mm 0.00 in0.0 mm 0.00 in0.0 mm
07:15 AM 51.7°F10.9°C 49.1°F9.5°C 91% Calm Calm -- 29.78 in1008.5 mb 0.00 in0.0 mm 0.00 in0.0 mm 0.00 in0.0 mm
07:10 AM 51.6°F10.9°C 49.1°F9.5°C 91% Calm Calm -- 29.77 in1008.1 mb 0.00 in0.0 mm 0.00 in0.0 mm 0.00 in0.0 mm
07:05 AM 51.3°F10.7°C 48.4°F9.1°C 90% Calm Calm -- 29.77 in1008.1 mb 0.00 in0.0 mm 0.00 in0.0 mm 0.00 in0.0 mm
07:00 AM 51.3°F10.7°C 48.4°F9.1°C 90% Calm Calm -- 29.77 in1008.1 mb 0.00 in0.0 mm 0.00 in0.0 mm 0.00 in0.0 mm
06:55 AM 51.3°F10.7°C 48.4°F9.1°C 90% Calm Calm -- 29.77 in1008.1 mb 0.00 in0.0 mm 0.00 in0.0 mm 0.00 in0.0 mm
06:50 AM 51.1°F10.6°C 48.2°F9.0°C 90% Calm Calm -- 29.77 in1008.1 mb 0.00 in0.0 mm 0.00 in0.0 mm 0.00 in0.0 mm
06:45 AM 51.0°F10.6°C 48.2°F9.0°C 90% Calm Calm -- 29.77 in1008.1 mb 0.00 in0.0 mm 0.00 in0.0 mm 0.00 in0.0 mm
06:40 AM 50.8°F10.4°C 47.8°F8.8°C 90% Calm Calm -- 29.77 in1008.1 mb 0.00 in0.0 mm 0.00 in0.0 mm 0.00 in0.0 mm
06:35 AM 50.7°F10.4°C 47.8°F8.8°C 90% Calm Calm -- 29.77 in1008.1 mb 0.00 in0.0 mm 0.00 in0.0 mm 0.00 in0.0 mm
06:30 AM 50.4°F10.2°C 47.5°F8.6°C 90% Calm Calm -- 29.77 in1008.1 mb 0.00 in0.0 mm 0.00 in0.0 mm 0.00 in0.0 mm
06:25 AM 50.4°F10.2°C 47.3°F8.5°C 89% Calm Calm -- 29.77 in1008.1 mb 0.00 in0.0 mm 0.00 in0.0 mm 0.00 in0.0 mm
06:20 AM 50.4°F10.2°C 47.3°F8.5°C 89% Calm Calm -- 29.77 in1008.1 mb 0.00 in0.0 mm 0.00 in0.0 mm 0.00 in0.0 mm
06:15 AM 50.5°F10.3°C 47.5°F8.6°C 89% Calm Calm -- 29.77 in1008.1 mb 0.00 in0.0 mm 0.00 in0.0 mm 0.00 in0.0 mm
06:10 AM 50.5°F10.3°C 47.5°F8.6°C 89% Calm Calm -- 29.77 in1008.1 mb 0.00 in0.0 mm 0.00 in0.0 mm 0.00 in0.0 mm
06:05 AM 50.5°F10.3°C 47.5°F8.6°C 89% Calm Calm -- 29.77 in1008.1 mb 0.00 in0.0 mm 0.00 in0.0 mm 0.00 in0.0 mm
06:00 AM 50.4°F10.2°C 47.3°F8.5°C 89% Calm Calm -- 29.77 in1008.1 mb 0.00 in0.0 mm 0.00 in0.0 mm 0.00 in0.0 mm
05:55 AM 50.2°F10.1°C 47.1°F8.4°C 89% Calm Calm -- 29.77 in1008.1 mb 0.00 in0.0 mm 0.00 in0.0 mm 0.00 in0.0 mm
05:50 AM 50.2°F10.1°C 47.1°F8.4°C 89% Calm Calm -- 29.77 in1008.1 mb 0.00 in0.0 mm 0.00 in0.0 mm 0.00 in0.0 mm
05:45 AM 50.2°F10.1°C 47.1°F8.4°C 89% Calm Calm -- 29.77 in1008.1 mb 0.00 in0.0 mm 0.00 in0.0 mm 0.00 in0.0 mm
05:40 AM 50.2°F10.1°C 47.1°F8.4°C 89% Calm Calm -- 29.77 in1008.1 mb 0.00 in0.0 mm 0.00 in0.0 mm 0.00 in0.0 mm
05:35 AM 50.1°F10.1°C 46.8°F8.2°C 88% Calm Calm -- 29.77 in1008.1 mb 0.00 in0.0 mm 0.00 in0.0 mm 0.00 in0.0 mm
05:30 AM 50.1°F10.1°C 46.8°F8.2°C 88% Calm Calm -- 29.77 in1008.1 mb 0.00 in0.0 mm 0.00 in0.0 mm 0.00 in0.0 mm
05:25 AM 50.2°F10.1°C 46.8°F8.2°C 88% Calm Calm -- 29.76 in1007.8 mb 0.00 in0.0 mm 0.00 in0.0 mm 0.00 in0.0 mm
05:20 AM 50.4°F10.2°C 46.9°F8.3°C 88% Calm Calm -- 29.76 in1007.8 mb 0.00 in0.0 mm 0.00 in0.0 mm 0.00 in0.0 mm
05:15 AM 50.4°F10.2°C 46.9°F8.3°C 88% Calm Calm -- 29.76 in1007.8 mb 0.00 in0.0 mm 0.00 in0.0 mm 0.00 in0.0 mm
05:10 AM 50.5°F10.3°C 47.1°F8.4°C 88% Calm Calm -- 29.76 in1007.8 mb 0.00 in0.0 mm 0.00 in0.0 mm 0.00 in0.0 mm
05:05 AM 50.5°F10.3°C 47.1°F8.4°C 88% Calm Calm -- 29.76 in1007.8 mb 0.00 in0.0 mm 0.00 in0.0 mm 0.00 in0.0 mm
05:00 AM 50.7°F10.4°C 47.3°F8.5°C 88% Calm Calm -- 29.76 in1007.8 mb 0.00 in0.0 mm 0.00 in0.0 mm 0.00 in0.0 mm
04:55 AM 50.7°F10.4°C 46.9°F8.3°C 87% Calm Calm -- 29.76 in1007.8 mb 0.00 in0.0 mm 0.00 in0.0 mm 0.00 in0.0 mm
04:50 AM 50.7°F10.4°C 46.9°F8.3°C 87% Calm Calm -- 29.76 in1007.8 mb 0.00 in0.0 mm 0.00 in0.0 mm 0.00 in0.0 mm
04:45 AM 50.7°F10.4°C 46.9°F8.3°C 87% Calm Calm -- 29.76 in1007.8 mb 0.00 in0.0 mm 0.00 in0.0 mm 0.00 in0.0 mm
04:40 AM 50.8°F10.4°C 46.9°F8.3°C 87% Calm Calm -- 29.77 in1008.1 mb 0.00 in0.0 mm 0.00 in0.0 mm 0.00 in0.0 mm
04:35 AM 51.0°F10.6°C 47.3°F8.5°C 87% Calm Calm -- 29.77 in1008.1 mb 0.00 in0.0 mm 0.00 in0.0 mm 0.00 in0.0 mm
04:30 AM 51.0°F10.6°C 47.3°F8.5°C 87% Calm Calm -- 29.77 in1008.1 mb 0.00 in0.0 mm 0.00 in0.0 mm 0.00 in0.0 mm
04:25 AM 51.1°F10.6°C 47.3°F8.5°C 87% Calm Calm -- 29.77 in1008.1 mb 0.00 in0.0 mm 0.00 in0.0 mm 0.00 in0.0 mm
04:20 AM 51.3°F10.7°C 47.5°F8.6°C 87% Calm Calm -- 29.77 in1008.1 mb 0.00 in0.0 mm 0.00 in0.0 mm 0.00 in0.0 mm
04:15 AM 51.3°F10.7°C 47.5°F8.6°C 87% Calm Calm -- 29.77 in1008.1 mb 0.00 in0.0 mm 0.00 in0.0 mm 0.00 in0.0 mm
04:10 AM 51.3°F10.7°C 47.3°F8.5°C 86% Calm Calm -- 29.77 in1008.1 mb 0.00 in0.0 mm 0.00 in0.0 mm 0.00 in0.0 mm
04:05 AM 51.3°F10.7°C 47.3°F8.5°C 86% Calm Calm -- 29.77 in1008.1 mb 0.00 in0.0 mm 0.00 in0.0 mm 0.00 in0.0 mm
04:00 AM 51.4°F10.8°C 47.5°F8.6°C 86% Calm Calm -- 29.77 in1008.1 mb 0.00 in0.0 mm 0.00 in0.0 mm 0.00 in0.0 mm
03:55 AM 51.4°F10.8°C 47.5°F8.6°C 86% Calm Calm -- 29.76 in1007.8 mb 0.00 in0.0 mm 0.00 in0.0 mm 0.00 in0.0 mm
03:50 AM 51.6°F10.9°C 47.5°F8.6°C 86% Calm Calm -- 29.76 in1007.8 mb 0.00 in0.0 mm 0.00 in0.0 mm 0.00 in0.0 mm
03:45 AM 51.6°F10.9°C 47.5°F8.6°C 86% Calm Calm -- 29.76 in1007.8 mb 0.00 in0.0 mm 0.00 in0.0 mm 0.00 in0.0 mm
03:40 AM 51.7°F10.9°C 47.5°F8.6°C 86% Calm Calm -- 29.76 in1007.8 mb 0.00 in0.0 mm 0.00 in0.0 mm 0.00 in0.0 mm
03:35 AM 51.7°F10.9°C 47.5°F8.6°C 86% Calm Calm -- 29.76 in1007.8 mb 0.00 in0.0 mm 0.00 in0.0 mm 0.00 in0.0 mm
03:30 AM 51.7°F10.9°C 47.5°F8.6°C 86% Calm Calm -- 29.76 in1007.8 mb 0.00 in0.0 mm 0.00 in0.0 mm 0.00 in0.0 mm
03:25 AM 51.7°F10.9°C 47.5°F8.6°C 86% Calm Calm -- 29.77 in1008.1 mb 0.00 in0.0 mm 0.00 in0.0 mm 0.00 in0.0 mm
03:20 AM 51.9°F11.1°C 47.8°F8.8°C 86% Calm Calm -- 29.77 in1008.1 mb 0.00 in0.0 mm 0.00 in0.0 mm 0.00 in0.0 mm
03:15 AM 52.0°F11.1°C 47.8°F8.8°C 86% Calm Calm -- 29.77 in1008.1 mb 0.00 in0.0 mm 0.00 in0.0 mm 0.00 in0.0 mm
03:10 AM 52.2°F11.2°C 47.8°F8.8°C 85% Calm Calm -- 29.77 in1008.1 mb 0.00 in0.0 mm 0.00 in0.0 mm 0.00 in0.0 mm
03:05 AM 52.2°F11.2°C 47.8°F8.8°C 85% Calm Calm -- 29.77 in1008.1 mb 0.00 in0.0 mm 0.00 in0.0 mm 0.00 in0.0 mm
03:00 AM 52.3°F11.3°C 48.0°F8.9°C 85% Calm Calm -- 29.77 in1008.1 mb 0.00 in0.0 mm 0.00 in0.0 mm 0.00 in0.0 mm
02:55 AM 52.3°F11.3°C 48.0°F8.9°C 85% Calm Calm -- 29.77 in1008.1 mb 0.00 in0.0 mm 0.00 in0.0 mm 0.00 in0.0 mm
02:50 AM 52.5°F11.4°C 48.2°F9.0°C 85% Calm Calm -- 29.77 in1008.1 mb 0.00 in0.0 mm 0.00 in0.0 mm 0.00 in0.0 mm
02:45 AM 52.5°F11.4°C 48.2°F9.0°C 85% Calm Calm -- 29.77 in1008.1 mb 0.00 in0.0 mm 0.00 in0.0 mm 0.00 in0.0 mm
02:40 AM 52.6°F11.4°C 47.8°F8.8°C 84% Calm Calm -- 29.77 in1008.1 mb 0.00 in0.0 mm 0.00 in0.0 mm 0.00 in0.0 mm
02:35 AM 52.6°F11.4°C 47.8°F8.8°C 84% Calm Calm -- 29.77 in1008.1 mb 0.00 in0.0 mm 0.00 in0.0 mm 0.00 in0.0 mm
02:30 AM 52.8°F11.6°C 48.2°F9.0°C 84% Calm Calm -- 29.77 in1008.1 mb 0.00 in0.0 mm 0.00 in0.0 mm 0.00 in0.0 mm
02:25 AM 52.9°F11.6°C 47.8°F8.8°C 83% Calm Calm -- 29.77 in1008.1 mb 0.00 in0.0 mm 0.00 in0.0 mm 0.00 in0.0 mm
02:20 AM 52.9°F11.6°C 47.8°F8.8°C 83% Calm Calm -- 29.77 in1008.1 mb 0.00 in0.0 mm 0.00 in0.0 mm 0.00 in0.0 mm
02:15 AM 53.1°F11.7°C 48.0°F8.9°C 83% Calm Calm -- 29.77 in1008.1 mb 0.00 in0.0 mm 0.00 in0.0 mm 0.00 in0.0 mm
02:10 AM 53.1°F11.7°C 48.0°F8.9°C 83% Calm Calm -- 29.78 in1008.5 mb 0.00 in0.0 mm 0.00 in0.0 mm 0.00 in0.0 mm
02:05 AM 53.2°F11.8°C 48.2°F9.0°C 83% Calm Calm -- 29.78 in1008.5 mb 0.00 in0.0 mm 0.00 in0.0 mm 0.00 in0.0 mm
02:00 AM 53.2°F11.8°C 47.8°F8.8°C 82% Calm Calm -- 29.78 in1008.5 mb 0.00 in0.0 mm 0.00 in0.0 mm 0.00 in0.0 mm
01:55 AM 53.2°F11.8°C 47.8°F8.8°C 82% Calm Calm -- 29.78 in1008.5 mb 0.00 in0.0 mm 0.00 in0.0 mm 0.00 in0.0 mm
01:50 AM 53.3°F11.8°C 47.8°F8.8°C 82% Calm Calm -- 29.78 in1008.5 mb 0.00 in0.0 mm 0.00 in0.0 mm 0.00 in0.0 mm
01:45 AM 53.5°F11.9°C 47.7°F8.7°C 81% Calm Calm -- 29.78 in1008.5 mb 0.00 in0.0 mm 0.00 in0.0 mm 0.00 in0.0 mm
01:40 AM 53.6°F12.0°C 47.8°F8.8°C 81% Calm Calm -- 29.78 in1008.5 mb 0.00 in0.0 mm 0.00 in0.0 mm 0.00 in0.0 mm
01:35 AM 53.8°F12.1°C 47.8°F8.8°C 80% Calm Calm -- 29.78 in1008.5 mb 0.00 in0.0 mm 0.00 in0.0 mm 0.00 in0.0 mm
01:30 AM 53.9°F12.2°C 48.0°F8.9°C 80% Calm Calm -- 29.78 in1008.5 mb 0.00 in0.0 mm 0.00 in0.0 mm 0.00 in0.0 mm
01:25 AM 54.1°F12.3°C 48.0°F8.9°C 80% Calm Calm -- 29.78 in1008.5 mb 0.00 in0.0 mm 0.00 in0.0 mm 0.00 in0.0 mm
01:20 AM 54.2°F12.3°C 48.0°F8.9°C 80% Calm Calm -- 29.78 in1008.5 mb 0.00 in0.0 mm 0.00 in0.0 mm 0.00 in0.0 mm
01:15 AM 54.4°F12.4°C 48.6°F9.2°C 81% Calm Calm -- 29.78 in1008.5 mb 0.00 in0.0 mm 0.00 in0.0 mm 0.00 in0.0 mm
01:10 AM 54.5°F12.5°C 48.7°F9.3°C 81% Calm Calm -- 29.78 in1008.5 mb 0.00 in0.0 mm 0.00 in0.0 mm 0.00 in0.0 mm
01:05 AM 54.7°F12.6°C 48.6°F9.2°C 80% Calm Calm -- 29.78 in1008.5 mb 0.00 in0.0 mm 0.00 in0.0 mm 0.00 in0.0 mm
01:00 AM 54.8°F12.7°C 48.7°F9.3°C 80% Calm Calm -- 29.78 in1008.5 mb 0.00 in0.0 mm 0.00 in0.0 mm 0.00 in0.0 mm
12:55 AM 55.0°F12.8°C 48.9°F9.4°C 80% Calm Calm -- 29.78 in1008.5 mb 0.00 in0.0 mm 0.00 in0.0 mm 0.00 in0.0 mm
12:50 AM 55.1°F12.8°C 48.9°F9.4°C 80% Calm Calm -- 29.78 in1008.5 mb 0.00 in0.0 mm 0.00 in0.0 mm 0.00 in0.0 mm
12:45 AM 55.1°F12.8°C 48.9°F9.4°C 80% Calm Calm -- 29.78 in1008.5 mb 0.00 in0.0 mm 0.00 in0.0 mm 0.00 in0.0 mm
12:40 AM 55.1°F12.8°C 48.6°F9.2°C 79% Calm Calm -- 29.78 in1008.5 mb 0.00 in0.0 mm 0.00 in0.0 mm 0.00 in0.0 mm
12:35 AM 55.3°F12.9°C 48.6°F9.2°C 78% Calm Calm -- 29.78 in1008.5 mb 0.00 in0.0 mm 0.00 in0.0 mm 0.00 in0.0 mm
12:30 AM 55.4°F13.0°C 48.7°F9.3°C 78% Calm Calm -- 29.78 in1008.5 mb 0.00 in0.0 mm 0.00 in0.0 mm 0.00 in0.0 mm
12:25 AM 55.6°F13.1°C 48.7°F9.3°C 78% Calm Calm -- 29.79 in1008.8 mb 0.00 in0.0 mm 0.00 in0.0 mm 0.00 in0.0 mm
12:20 AM 55.7°F13.2°C 48.4°F9.1°C 76% Calm Calm -- 29.79 in1008.8 mb 0.00 in0.0 mm 0.00 in0.0 mm 0.00 in0.0 mm
12:15 AM 55.9°F13.3°C 48.6°F9.2°C 76% Calm Calm -- 29.79 in1008.8 mb 0.00 in0.0 mm 0.00 in0.0 mm 0.00 in0.0 mm
12:10 AM 56.2°F13.4°C 48.7°F9.3°C 76% Calm Calm -- 29.80 in1009.1 mb 0.00 in0.0 mm 0.00 in0.0 mm 0.00 in0.0 mm
12:05 AM 56.3°F13.5°C 48.6°F9.2°C 75% Calm Calm -- 29.80 in1009.1 mb 0.00 in0.0 mm 0.00 in0.0 mm 0.00 in0.0 mm
12:00 AM 56.6°F13.7°C 48.4°F9.1°C 74% Calm Calm -- 29.80 in1009.1 mb 0.00 in0.0 mm 0.00 in0.0 mm 0.00 in0.0 mm